Time;durP1;ratioP1;P1;durP2;ratioP2;P2;SDS_P1;SDS_P2;PMS_P1;PMS_P2;Temp;Humidity;BMP_temperature;BMP_pressure;BME280_temperature;BME280_humidity;BME280_pressure;Samples;Min_cycle;Max_cycle;Signal;HPM_P1;HPM_P2
2023/04/07 00:03:06;;;;;;;7.30;6.57;;;;;;;12.90;53.83;98825.66;6998309;28;20229;-78
2023/04/07 00:06:28;;;;;;;7.43;6.73;;;;;;;12.87;53.78;98826.13;6998680;28;20259;-78
2023/04/07 00:09:50;;;;;;;6.57;5.97;;;;;;;12.77;53.77;98823.06;6997528;28;20205;-77
2023/04/07 00:13:12;;;;;;;7.73;6.23;;;;;;;12.87;53.44;98812.59;6989752;28;20241;-80
2023/04/07 00:16:33;;;;;;;6.90;6.00;;;;;;;12.77;53.47;98812.22;6970889;28;20295;-77
2023/04/07 00:19:55;;;;;;;7.90;6.47;;;;;;;12.90;53.40;98796.72;6970169;28;20282;-82
2023/04/07 00:23:16;;;;;;;7.47;6.40;;;;;;;12.87;53.64;98816.09;6970588;28;20230;-78
2023/04/07 00:26:39;;;;;;;6.50;5.90;;;;;;;12.94;52.32;98797.97;6970367;28;20210;-78
2023/04/07 00:30:01;;;;;;;8.57;4.93;;;;;;;13.12;52.29;98786.38;6969323;28;20680;-78
2023/04/07 00:33:22;;;;;;;8.23;6.67;;;;;;;12.71;53.24;98749.03;6969684;28;20229;-78
2023/04/07 00:36:50;;;;;;;8.30;6.70;;;;;;;13.13;52.74;98769.94;6970168;28;20805;-78
2023/04/07 00:40:12;;;;;;;7.83;7.03;;;;;;;13.07;53.83;98789.75;6969347;28;20198;-78
2023/04/07 00:43:35;;;;;;;11.43;6.80;;;;;;;12.81;54.49;98776.38;6969508;28;20279;-77
2023/04/07 00:46:56;;;;;;;8.20;7.27;;;;;;;12.89;54.14;98772.59;6970091;28;20202;-77
2023/04/07 00:50:18;;;;;;;9.87;8.10;;;;;;;12.86;53.84;98767.63;6992727;28;20206;-81
2023/04/07 00:53:40;;;;;;;10.20;7.03;;;;;;;12.67;54.43;98765.88;6996828;28;20314;-77
2023/04/07 00:57:01;;;;;;;8.97;7.27;;;;;;;12.71;55.22;98765.25;6996810;28;20207;-77
2023/04/07 01:00:24;;;;;;;8.67;6.50;;;;;;;12.70;54.38;98752.75;6995972;28;20269;-77
2023/04/07 01:04:00;;;;;;;9.43;6.87;;;;;;;12.74;54.23;98764.78;6996491;28;20278;-77
2023/04/07 01:07:24;;;;;;;8.27;7.37;;;;;;;12.30;55.23;98755.94;6996559;28;20210;-77
2023/04/07 01:10:58;;;;;;;9.10;7.47;;;;;;;11.71;56.26;98723.00;6996419;28;20252;-77
2023/04/07 01:14:20;;;;;;;8.43;7.37;;;;;;;11.67;57.66;98748.75;6996793;28;20281;-77
2023/04/07 01:17:46;;;;;;;7.90;7.13;;;;;;;12.10;56.38;98714.72;6996784;28;20347;-77
2023/04/07 01:21:11;;;;;;;7.03;6.23;;;;;;;12.53;54.48;98731.88;6995956;28;20308;-78
2023/04/07 01:25:17;;;;;;;7.57;6.83;;;;;;;12.55;54.47;98730.63;6996330;28;20336;-77
2023/04/07 01:28:50;;;;;;;9.33;6.30;;;;;;;12.57;54.09;98709.56;6985567;28;20288;-77
2023/04/07 01:32:14;;;;;;;7.37;6.63;;;;;;;12.65;54.36;98730.97;6995691;28;20311;-78
2023/04/07 01:35:37;;;;;;;7.63;6.63;;;;;;;12.77;53.79;98720.25;6996915;28;20635;-78
2023/04/07 01:38:59;;;;;;;8.63;7.40;;;;;;;12.47;54.10;98709.25;6996787;28;20206;-78
2023/04/07 01:42:20;;;;;;;9.40;7.03;;;;;;;12.49;54.00;98722.53;6995960;28;20292;-77
2023/04/07 01:45:43;;;;;;;9.90;6.67;;;;;;;12.66;53.62;98712.84;6996206;28;20597;-78
2023/04/07 01:49:06;;;;;;;8.47;7.30;;;;;;;12.12;55.15;98723.41;6996354;28;20214;-78
2023/04/07 01:52:28;;;;;;;8.13;7.30;;;;;;;11.95;55.58;98701.50;6995394;28;20206;-77
2023/04/07 01:55:50;;;;;;;8.93;7.50;;;;;;;11.93;56.52;98695.44;6995986;28;20320;-78
2023/04/07 01:59:11;;;;;;;7.50;6.70;;;;;;;12.23;55.02;98684.88;6996050;28;20205;-77
2023/04/07 02:02:34;;;;;;;9.43;7.63;;;;;;;12.14;55.62;98705.09;6995217;28;20262;-79
2023/04/07 02:05:59;;;;;;;8.20;7.33;;;;;;;12.22;55.80;98694.06;6996139;28;20212;-78
2023/04/07 02:09:21;;;;;;;8.70;7.67;;;;;;;11.63;56.90;98690.84;6996025;28;20213;-80
2023/04/07 02:12:45;;;;;;;11.27;7.60;;;;;;;12.27;55.94;98695.03;6996868;28;20688;-79
2023/04/07 02:16:08;;;;;;;8.20;7.03;;;;;;;12.12;55.37;98697.22;7001298;28;20222;-78
2023/04/07 02:19:30;;;;;;;10.37;7.30;;;;;;;12.26;55.05;98696.09;7000873;28;20197;-79
2023/04/07 02:22:54;;;;;;;8.67;7.00;;;;;;;12.51;54.25;98693.44;7001102;28;20712;-77
2023/04/07 02:26:16;;;;;;;8.10;6.90;;;;;;;12.62;54.75;98692.72;7000852;28;20209;-79
2023/04/07 02:29:37;;;;;;;8.47;7.60;;;;;;;12.54;55.26;98674.88;7000106;28;20251;-78
2023/04/07 02:32:59;;;;;;;9.93;7.80;;;;;;;12.58;54.72;98681.47;7000571;28;20279;-78
2023/04/07 02:36:20;;;;;;;8.47;7.57;;;;;;;12.76;54.41;98681.53;7000824;28;20286;-77
2023/04/07 02:39:43;;;;;;;11.13;8.57;;;;;;;12.70;54.85;98677.00;6999916;28;20296;-79
2023/04/07 02:43:05;;;;;;;8.87;7.50;;;;;;;12.61;55.06;98669.41;7000751;28;20285;-77
2023/04/07 02:46:26;;;;;;;9.57;8.10;;;;;;;12.76;54.37;98676.13;7000541;28;20340;-78
2023/04/07 02:49:48;;;;;;;9.17;7.77;;;;;;;12.76;54.22;98657.19;6995463;28;20205;-80
2023/04/07 02:53:09;;;;;;;9.70;7.87;;;;;;;12.84;53.48;98654.22;6993300;28;20305;-78
2023/04/07 02:56:32;;;;;;;8.60;7.53;;;;;;;12.69;54.42;98664.53;7000070;28;20686;-77
2023/04/07 02:59:54;;;;;;;9.40;7.47;;;;;;;12.69;54.80;98658.31;6999748;28;20266;-80
2023/04/07 03:03:16;;;;;;;11.00;9.43;;;;;;;11.95;55.96;98660.13;6996733;28;20371;-77
2023/04/07 03:06:37;;;;;;;9.37;8.10;;;;;;;11.97;56.26;98658.84;6982157;28;20332;-78
2023/04/07 03:09:59;;;;;;;9.53;7.80;;;;;;;11.84;56.80;98667.03;6971417;28;20259;-77
2023/04/07 03:13:22;;;;;;;9.37;7.80;;;;;;;11.98;56.37;98665.91;6983961;28;20226;-77
2023/04/07 03:16:43;;;;;;;10.53;9.20;;;;;;;11.98;56.30;98649.69;6971863;28;20691;-78
2023/04/07 03:20:07;;;;;;;8.70;7.77;;;;;;;12.18;55.78;98657.69;6971583;28;20734;-80
2023/04/07 03:23:28;;;;;;;9.50;7.50;;;;;;;12.14;56.01;98649.19;6971186;28;20261;-78
2023/04/07 03:26:50;;;;;;;10.13;8.47;;;;;;;12.01;55.11;98586.28;6972233;28;20230;-77
2023/04/07 03:30:13;;;;;;;9.20;8.20;;;;;;;12.27;55.19;98632.06;6971127;28;20587;-78
2023/04/07 03:33:35;;;;;;;11.27;8.27;;;;;;;12.41;55.69;98639.84;6972115;28;20844;-77
2023/04/07 03:36:56;;;;;;;8.77;7.70;;;;;;;12.22;55.92;98626.47;6971459;28;20214;-77
2023/04/07 03:40:18;;;;;;;10.57;8.90;;;;;;;12.00;55.89;98626.00;6971057;28;20206;-77
2023/04/07 03:43:40;;;;;;;12.93;9.37;;;;;;;12.20;57.11;98634.78;6982523;28;20286;-77
2023/04/07 03:47:02;;;;;;;11.63;8.57;;;;;;;12.30;56.13;98621.63;6999084;28;20220;-77
2023/04/07 03:50:24;;;;;;;11.33;9.00;;;;;;;12.15;56.21;98623.00;6998624;28;20704;-79
2023/04/07 03:53:46;;;;;;;12.10;10.00;;;;;;;12.39;56.16;98627.59;6998886;28;20236;-78
2023/04/07 03:57:07;;;;;;;13.67;8.70;;;;;;;12.37;55.79;98627.81;6998919;28;20212;-78
2023/04/07 04:00:30;;;;;;;10.83;9.30;;;;;;;11.68;58.33;98631.63;6998095;28;20213;-77
2023/04/07 04:03:53;;;;;;;13.17;10.30;;;;;;;11.71;58.94;98623.91;6998192;28;20229;-79
2023/04/07 04:07:15;;;;;;;14.43;9.93;;;;;;;11.91;58.57;98618.38;6998645;28;20865;-80
2023/04/07 04:10:36;;;;;;;12.83;10.37;;;;;;;12.16;57.95;98613.84;6997322;28;20213;-78
2023/04/07 04:13:57;;;;;;;12.40;10.47;;;;;;;12.40;57.36;98621.94;6998192;28;20222;-79
2023/04/07 04:17:19;;;;;;;12.20;9.90;;;;;;;12.45;56.63;98607.78;6998135;28;20258;-78
2023/04/07 04:20:42;;;;;;;11.57;9.70;;;;;;;12.45;55.58;98610.47;6997792;28;20254;-79
2023/04/07 04:24:04;;;;;;;13.17;10.13;;;;;;;12.17;56.42;98583.88;6998019;28;20226;-78
2023/04/07 04:27:26;;;;;;;12.37;9.77;;;;;;;12.51;55.44;98605.00;6997241;28;20210;-79
2023/04/07 04:30:47;;;;;;;13.30;10.33;;;;;;;12.51;56.15;98606.88;6996342;28;20217;-78
2023/04/07 04:34:09;;;;;;;12.90;9.20;;;;;;;12.49;55.75;98607.09;6997360;28;20241;-77
2023/04/07 04:37:32;;;;;;;15.97;10.97;;;;;;;12.47;55.87;98605.66;6995993;28;20212;-77
2023/04/07 04:40:54;;;;;;;11.43;9.57;;;;;;;12.41;56.00;98617.38;6996009;28;20211;-79
2023/04/07 04:44:15;;;;;;;12.80;10.10;;;;;;;12.44;55.82;98615.03;6996728;28;20306;-78
2023/04/07 04:47:37;;;;;;;12.93;10.43;;;;;;;12.33;56.34;98607.66;6997142;28;20210;-77
2023/04/07 04:50:59;;;;;;;12.60;10.30;;;;;;;12.35;56.45;98605.56;6996553;28;20210;-78
2023/04/07 04:54:22;;;;;;;14.53;11.27;;;;;;;12.23;56.86;98612.72;6996962;28;20757;-78
2023/04/07 04:57:43;;;;;;;14.37;10.40;;;;;;;11.64;57.86;98616.88;6996345;28;20323;-78
2023/04/07 05:01:05;;;;;;;11.83;10.10;;;;;;;11.80;57.78;98621.78;6996298;28;20563;-78
2023/04/07 05:04:27;;;;;;;12.97;10.77;;;;;;;11.81;58.15;98609.94;6996912;28;20794;-77
2023/04/07 05:07:48;;;;;;;14.63;11.17;;;;;;;11.83;58.00;98605.97;6997008;28;20674;-78
2023/04/07 05:11:11;;;;;;;14.83;12.03;;;;;;;12.17;57.28;98602.78;6996119;28;20296;-77
2023/04/07 05:14:33;;;;;;;13.90;10.67;;;;;;;12.34;56.58;98601.19;6996699;28;20237;-77
2023/04/07 05:17:54;;;;;;;14.50;11.10;;;;;;;12.28;56.33;98604.78;6989889;28;20226;-77
2023/04/07 05:21:15;;;;;;;13.57;10.60;;;;;;;12.25;56.70;98597.13;6968190;28;20205;-78
2023/04/07 05:24:37;;;;;;;15.87;11.10;;;;;;;11.95;56.87;98569.09;6968979;28;20776;-77
2023/04/07 05:28:00;;;;;;;13.00;10.77;;;;;;;12.37;56.01;98610.75;6972756;28;20205;-77
2023/04/07 05:31:21;;;;;;;13.07;10.60;;;;;;;12.41;55.95;98606.56;6994953;28;20217;-80
2023/04/07 05:34:43;;;;;;;12.77;10.33;;;;;;;12.43;55.26;98610.69;6995962;28;20587;-77
2023/04/07 05:38:04;;;;;;;14.23;10.60;;;;;;;12.48;55.39;98607.31;6995849;28;20262;-78
2023/04/07 05:41:26;;;;;;;15.10;10.10;;;;;;;12.43;56.08;98612.56;6995836;28;20198;-81
2023/04/07 05:44:49;;;;;;;12.97;10.13;;;;;;;12.58;55.26;98602.25;6995836;28;20225;-77
2023/04/07 05:48:11;;;;;;;13.97;10.03;;;;;;;12.62;55.35;98612.38;6999958;28;20212;-79
2023/04/07 05:51:32;;;;;;;15.73;10.97;;;;;;;12.51;55.42;98617.69;7001050;28;20209;-79
2023/04/07 05:54:53;;;;;;;12.10;10.70;;;;;;;12.40;55.97;98607.59;7001607;28;20708;-76
2023/04/07 05:58:15;;;;;;;13.00;11.23;;;;;;;12.61;55.92;98616.16;6994105;28;20201;-78
2023/04/07 06:01:38;;;;;;;15.60;10.90;;;;;;;12.73;55.32;98610.81;6976940;28;20210;-79
2023/04/07 06:05:00;;;;;;;14.40;11.03;;;;;;;12.89;54.32;98618.34;6979490;28;20210;-78
2023/04/07 06:08:21;;;;;;;15.43;10.90;;;;;;;12.93;54.49;98606.03;6995937;28;20266;-79
2023/04/07 06:11:43;;;;;;;12.90;9.67;;;;;;;13.04;53.54;98624.28;6977339;28;20253;-78
2023/04/07 06:15:05;;;;;;;15.27;10.80;;;;;;;12.93;54.57;98614.16;6973069;28;20678;-78
2023/04/07 06:18:27;;;;;;;14.37;11.73;;;;;;;12.83;55.09;98630.06;6972970;28;20210;-79
2023/04/07 06:21:49;;;;;;;13.60;10.53;;;;;;;13.03;54.22;98626.16;6987060;28;20210;-77
2023/04/07 06:25:10;;;;;;;13.20;11.20;;;;;;;12.98;53.85;98617.88;6999693;28;20221;-77
2023/04/07 06:28:32;;;;;;;14.33;10.67;;;;;;;12.94;54.50;98624.78;6999925;28;20225;-77
2023/04/07 06:31:53;;;;;;;17.77;12.13;;;;;;;13.02;54.24;98623.66;6999281;28;20215;-77
2023/04/07 06:35:16;;;;;;;15.77;11.10;;;;;;;13.04;54.54;98611.56;6999426;28;20225;-78
2023/04/07 06:38:38;;;;;;;12.37;9.83;;;;;;;13.15;53.52;98615.41;6990258;28;20201;-77
2023/04/07 06:42:00;;;;;;;12.03;10.07;;;;;;;13.08;53.37;98612.75;7002453;28;20210;-77
2023/04/07 06:45:22;;;;;;;15.17;10.50;;;;;;;13.19;53.47;98609.31;7000150;28;20218;-77
2023/04/07 06:48:43;;;;;;;12.27;10.23;;;;;;;13.36;52.80;98607.66;7000382;28;20259;-77
2023/04/07 06:52:06;;;;;;;12.03;10.60;;;;;;;13.29;53.30;98614.19;6999527;28;20661;-77
2023/04/07 06:55:28;;;;;;;10.67;9.30;;;;;;;13.45;52.82;98610.88;6998484;28;20233;-77
2023/04/07 06:58:49;;;;;;;10.93;9.70;;;;;;;13.76;51.84;98610.66;6992194;28;20251;-78
2023/04/07 07:02:11;;;;;;;11.10;10.00;;;;;;;13.74;51.85;98612.78;6975357;28;20678;-79
2023/04/07 07:05:33;;;;;;;12.13;9.80;;;;;;;13.63;51.87;98600.81;6972596;28;20229;-77
2023/04/07 07:08:56;;;;;;;11.40;9.30;;;;;;;13.63;51.87;98610.84;6993477;28;20197;-78
2023/04/07 07:12:17;;;;;;;11.70;9.87;;;;;;;13.68;52.67;98608.28;6999819;28;20256;-79
2023/04/07 07:15:39;;;;;;;12.17;9.10;;;;;;;14.07;50.88;98608.50;7000108;28;20287;-77
2023/04/07 07:19:00;;;;;;;9.97;8.90;;;;;;;14.25;50.91;98603.03;7000133;28;20263;-77
2023/04/07 07:22:22;;;;;;;11.23;9.63;;;;;;;14.48;50.45;98610.38;6999799;28;20207;-80
2023/04/07 07:25:44;;;;;;;10.83;9.63;;;;;;;14.46;50.38;98601.66;6999443;28;20680;-77
2023/04/07 07:29:06;;;;;;;10.63;9.63;;;;;;;14.75;49.79;98601.53;7000118;28;20215;-78
2023/04/07 07:32:27;;;;;;;10.70;9.17;;;;;;;15.01;49.20;98597.50;6999491;28;20196;-77
2023/04/07 07:35:49;;;;;;;12.77;9.47;;;;;;;14.79;50.73;98604.59;6997302;28;20688;-77
2023/04/07 07:39:10;;;;;;;12.17;9.87;;;;;;;14.98;51.84;98601.53;6998139;28;20251;-78
2023/04/07 07:42:34;;;;;;;9.73;8.73;;;;;;;14.92;50.66;98561.75;6971625;28;20216;-77
2023/04/07 07:45:55;;;;;;;10.60;9.50;;;;;;;14.69;50.77;98605.19;6971862;28;20226;-77
2023/04/07 07:49:17;;;;;;;9.73;8.37;;;;;;;15.83;46.16;98587.03;6985946;28;20207;-81
2023/04/07 07:52:38;;;;;;;8.50;7.70;;;;;;;16.94;44.42;98585.09;6995947;28;20221;-78
2023/04/07 08:00:18;;;;;;;8.87;7.83;;;;;;;17.41;41.81;98582.75;6998463;28;20176;-78
2023/04/07 08:03:40;;;;;;;8.67;7.77;;;;;;;16.93;41.19;98601.69;6998482;28;20308;-77
2023/04/07 08:07:01;;;;;;;7.07;6.47;;;;;;;17.60;41.09;98598.53;6998538;28;20306;-77
2023/04/07 08:10:24;;;;;;;9.30;8.40;;;;;;;15.39;46.44;98608.69;6987969;28;20214;-76
2023/04/07 08:13:45;;;;;;;8.40;7.60;;;;;;;15.74;47.05;98610.22;6976566;28;20226;-77
2023/04/07 08:17:08;;;;;;;7.93;7.13;;;;;;;16.64;44.37;98600.94;6970347;28;20234;-76
2023/04/07 08:20:30;;;;;;;8.77;7.57;;;;;;;16.68;44.76;98595.88;6970155;28;20785;-78
2023/04/07 08:23:53;;;;;;;7.90;6.87;;;;;;;16.73;43.91;98591.31;6970172;28;20234;-76
2023/04/07 08:27:14;;;;;;;8.70;5.40;;;;;;;18.04;40.82;98602.00;6970215;28;20717;-77
2023/04/07 08:30:36;;;;;;;5.93;5.33;;;;;;;17.30;41.00;98589.94;6978700;28;20237;-76
2023/04/07 08:33:59;;;;;;;6.63;5.93;;;;;;;17.89;40.92;98582.75;6997294;28;20268;-78
2023/04/07 08:37:21;;;;;;;4.80;4.30;;;;;;;18.34;38.31;98588.69;6996963;28;20222;-77
2023/04/07 08:40:42;;;;;;;4.77;3.90;;;;;;;18.67;36.48;98591.97;6994876;28;20282;-77
2023/04/07 08:44:04;;;;;;;5.27;4.43;;;;;;;18.38;38.43;98601.53;6996523;28;20294;-75
2023/04/07 08:47:26;;;;;;;5.03;4.40;;;;;;;17.33;38.69;98613.16;6997059;28;20285;-77
2023/04/07 08:50:52;;;;;;;5.10;4.60;;;;;;;17.55;38.48;98608.53;6996807;28;20205;-76
2023/04/07 08:54:17;;;;;;;5.80;5.17;;;;;;;17.33;39.83;98602.25;6996901;28;20237;-80
2023/04/07 08:57:41;;;;;;;5.27;4.77;;;;;;;17.65;40.00;98586.84;6994976;28;20214;-77
2023/04/07 09:01:03;;;;;;;5.87;5.00;;;;;;;18.42;39.35;98612.78;6996169;28;20186;-77
2023/04/07 09:04:26;;;;;;;5.90;4.97;;;;;;;16.95;40.23;98613.13;6996484;28;20282;-77
2023/04/07 09:07:49;;;;;;;5.73;5.03;;;;;;;17.14;40.30;98611.78;6996681;28;20202;-80
2023/04/07 09:11:11;;;;;;;5.37;4.87;;;;;;;16.76;41.24;98619.94;6995852;28;20286;-77
2023/04/07 09:14:33;;;;;;;7.10;4.97;;;;;;;17.00;40.86;98599.59;6996558;28;20663;-77
2023/04/07 09:17:56;;;;;;;6.77;4.80;;;;;;;18.09;39.40;98616.53;6996220;28;20225;-77
2023/04/07 09:21:18;;;;;;;6.90;5.13;;;;;;;16.77;40.79;98616.97;6995287;28;20197;-78
2023/04/07 09:24:41;;;;;;;8.57;5.43;;;;;;;16.47;41.60;98612.94;6996622;28;20294;-76
2023/04/07 09:28:04;;;;;;;6.57;5.10;;;;;;;16.49;41.82;98622.50;6996061;28;20274;-78
2023/04/07 09:31:44;;;;;;;5.93;5.43;;;;;;;16.75;41.07;98619.09;6995018;28;20212;-77
2023/04/07 09:35:07;;;;;;;7.00;5.60;;;;;;;15.73;42.98;98626.75;6997030;28;20221;-77
2023/04/07 09:38:37;;;;;;;7.17;5.60;;;;;;;17.06;40.96;98595.88;6996698;28;20711;-78
2023/04/07 09:42:06;;;;;;;6.17;5.40;;;;;;;15.60;43.38;98606.16;6995864;28;20197;-76
2023/04/07 09:45:28;;;;;;;5.10;4.40;;;;;;;16.51;42.41;98606.75;6996207;28;20224;-76
2023/04/07 09:49:01;;;;;;;5.67;5.10;;;;;;;16.94;40.96;98623.22;6980320;28;20703;-76
2023/04/07 09:52:26;;;;;;;5.97;5.27;;;;;;;17.50;40.13;98613.91;6968095;28;20190;-76
2023/04/07 09:55:47;;;;;;;8.47;5.10;;;;;;;18.01;39.42;98614.25;6984509;28;20231;-79
2023/04/07 09:59:10;;;;;;;5.83;5.10;;;;;;;17.95;38.77;98618.03;6972728;28;20647;-77
2023/04/07 10:02:32;;;;;;;5.23;4.83;;;;;;;17.67;39.59;98604.59;6994876;28;20325;-78
2023/04/07 10:05:54;;;;;;;8.07;5.57;;;;;;;16.47;41.57;98623.81;6994279;28;20202;-76
2023/04/07 10:09:16;;;;;;;6.13;5.20;;;;;;;17.76;40.03;98626.78;6993185;28;20613;-78
2023/04/07 10:12:40;;;;;;;5.20;4.70;;;;;;;18.12;39.38;98626.09;6988873;28;20198;-79
2023/04/07 10:16:05;;;;;;;7.80;5.20;;;;;;;17.97;38.20;98598.66;6993507;28;20320;-76
2023/04/07 10:19:30;;;;;;;7.40;5.30;;;;;;;17.17;40.82;98611.28;6995157;28;20296;-76
2023/04/07 10:22:53;;;;;;;8.63;5.50;;;;;;;16.60;42.08;98615.31;6995080;28;20227;-76
2023/04/07 10:26:16;;;;;;;5.90;5.30;;;;;;;16.37;42.80;98627.16;6992950;28;20209;-76
2023/04/07 10:29:41;;;;;;;6.63;5.40;;;;;;;16.93;41.26;98604.41;6994587;28;20241;-78
2023/04/07 10:33:04;;;;;;;6.73;5.97;;;;;;;16.94;42.00;98623.22;6995024;28;20317;-79
2023/04/07 10:36:27;;;;;;;7.53;5.70;;;;;;;17.22;41.04;98627.72;6998880;28;20231;-77
2023/04/07 10:39:49;;;;;;;6.13;5.47;;;;;;;17.91;40.18;98627.78;7001253;28;20186;-79
2023/04/07 10:43:11;;;;;;;6.40;5.80;;;;;;;18.49;38.25;98616.09;7006082;28;20320;-83
2023/04/07 10:47:04;;;;;;;7.67;5.27;;;;;;;18.26;39.52;98619.97;7006410;28;20279;-79
2023/04/07 10:50:28;;;;;;;7.27;5.50;;;;;;;16.41;42.57;98613.91;7008087;28;20670;-79
2023/04/07 10:54:24;;;;;;;5.90;5.23;;;;;;;16.88;41.91;98616.03;6975833;28;20745;-79
2023/04/07 10:58:14;;;;;;;6.23;5.63;;;;;;;17.33;40.34;98613.16;6990323;28;20240;-78
2023/04/07 11:01:35;;;;;;;6.00;5.37;;;;;;;17.35;39.91;98608.25;6998680;28;20348;-78
2023/04/07 11:04:57;;;;;;;9.13;5.30;;;;;;;17.91;39.92;98610.59;6999606;28;20721;-78
2023/04/07 11:08:32;;;;;;;6.43;4.63;;;;;;;17.99;38.86;98607.41;6999292;28;20339;-78
2023/04/07 11:11:54;;;;;;;5.87;4.57;;;;;;;18.32;38.48;98612.66;6975998;28;20199;-78
2023/04/07 11:15:20;;;;;;;7.50;4.63;;;;;;;18.31;38.03;98611.88;6971756;28;20277;-79
2023/04/07 11:18:43;;;;;;;5.00;3.90;;;;;;;18.31;36.98;98591.88;6971721;28;20226;-78
2023/04/07 11:22:13;;;;;;;7.37;4.00;;;;;;;17.65;38.86;98600.47;6971463;28;20289;-78
2023/04/07 11:25:36;;;;;;;6.63;3.70;;;;;;;17.68;38.23;98599.97;6971174;28;20630;-78
2023/04/07 11:28:58;;;;;;;5.63;3.77;;;;;;;17.21;38.81;98602.34;6971130;28;20272;-78
2023/04/07 11:32:23;;;;;;;6.53;3.97;;;;;;;18.44;36.32;98603.25;6970273;28;20221;-79
2023/04/07 11:35:54;;;;;;;4.77;3.50;;;;;;;18.14;36.97;98599.38;6973143;28;20234;-79
2023/04/07 11:39:20;;;;;;;7.27;3.73;;;;;;;18.24;36.77;98600.31;6972905;28;20197;-79
2023/04/07 11:42:45;;;;;;;5.33;4.07;;;;;;;18.83;36.16;98595.63;6972331;28;20213;-79
2023/04/07 11:46:07;;;;;;;5.33;4.27;;;;;;;18.39;36.59;98580.53;6974420;28;20206;-79
2023/04/07 11:49:30;;;;;;;6.30;4.83;;;;;;;17.67;38.34;98611.94;6972270;28;20237;-80
2023/04/07 11:52:52;;;;;;;5.57;4.33;;;;;;;18.00;38.79;98607.16;6976583;28;20227;-80
2023/04/07 11:56:17;;;;;;;6.10;4.10;;;;;;;18.72;37.81;98613.84;6972295;28;20388;-77
2023/04/07 11:59:40;;;;;;;7.33;4.50;;;;;;;19.03;37.26;98603.94;6989430;28;20202;-79
2023/04/07 12:03:10;;;;;;;7.70;4.40;;;;;;;19.36;36.14;98609.09;6999565;28;20652;-82
2023/04/07 12:06:33;;;;;;;5.23;4.27;;;;;;;18.17;38.26;98620.69;6998077;28;20807;-77
2023/04/07 12:09:56;;;;;;;6.70;4.97;;;;;;;17.41;39.31;98620.91;6997936;28;20217;-77
2023/04/07 12:13:18;;;;;;;7.07;4.47;;;;;;;17.09;40.37;98615.25;6998212;28;20568;-78
2023/04/07 12:16:41;;;;;;;7.70;5.00;;;;;;;17.75;39.32;98614.25;6997382;28;20232;-78
2023/04/07 12:20:03;;;;;;;6.63;4.40;;;;;;;17.61;39.60;98612.97;6996968;28;20209;-77
2023/04/07 12:23:25;;;;;;;6.93;4.23;;;;;;;18.93;36.58;98604.69;6997142;28;20242;-77
2023/04/07 12:26:47;;;;;;;7.10;4.87;;;;;;;18.51;37.11;98616.69;6997306;28;20209;-78
2023/04/07 12:30:09;;;;;;;6.40;4.20;;;;;;;17.14;39.76;98631.69;6990356;28;20971;-77
2023/04/07 12:33:32;;;;;;;4.70;3.80;;;;;;;18.71;37.89;98625.03;6969348;28;20701;-78
2023/04/07 12:36:53;;;;;;;4.87;3.53;;;;;;;19.65;35.41;98619.34;6969554;28;20298;-78
2023/04/07 12:40:16;;;;;;;4.53;3.63;;;;;;;18.79;36.25;98606.25;6968671;28;20302;-78
2023/04/07 12:43:38;;;;;;;6.20;3.60;;;;;;;18.65;36.08;98624.19;6969282;28;20227;-78
2023/04/07 12:46:59;;;;;;;5.13;3.67;;;;;;;18.70;36.83;98618.72;6968870;28;20206;-77
2023/04/07 12:50:24;;;;;;;6.10;3.50;;;;;;;19.38;35.45;98623.31;6968234;28;20287;-78
2023/04/07 12:53:46;;;;;;;6.90;3.50;;;;;;;18.42;36.65;98612.78;6968953;28;20255;-78
2023/04/07 12:57:07;;;;;;;6.07;3.37;;;;;;;17.93;37.67;98620.16;6967205;28;20588;-77
2023/04/07 13:00:29;;;;;;;6.97;3.93;;;;;;;18.40;37.30;98634.06;6971512;28;20205;-78
2023/04/07 13:03:50;;;;;;;4.93;3.70;;;;;;;17.88;38.33;98628.28;6994317;28;20305;-78
2023/04/07 13:07:14;;;;;;;5.37;3.80;;;;;;;18.05;38.50;98611.84;6993307;28;20948;-77
2023/04/07 13:10:35;;;;;;;7.57;4.33;;;;;;;18.28;39.38;98622.44;6990774;28;20383;-78
2023/04/07 13:13:56;;;;;;;5.97;3.87;;;;;;;18.03;38.96;98622.16;6992352;28;20221;-77
2023/04/07 13:17:18;;;;;;;5.80;4.30;;;;;;;17.82;39.60;98614.88;6996204;28;20579;-77
2023/04/07 13:20:39;;;;;;;5.47;4.03;;;;;;;17.58;40.57;98619.75;6991039;28;20206;-78
2023/04/07 13:24:02;;;;;;;8.60;3.90;;;;;;;18.10;39.94;98626.34;7005794;28;20376;-77
2023/04/07 13:27:24;;;;;;;5.73;5.13;;;;;;;18.08;39.90;98623.06;6999367;28;20245;-77
2023/04/07 13:30:45;;;;;;;7.67;4.10;;;;;;;17.88;40.40;98636.47;6994303;28;20274;-78
2023/04/07 13:34:07;;;;;;;4.90;3.53;;;;;;;17.70;38.92;98634.06;6995957;28;20225;-78
2023/04/07 13:37:28;;;;;;;7.87;3.47;;;;;;;17.02;39.80;98597.44;6988779;28;20716;-77
2023/04/07 13:40:51;;;;;;;4.00;3.30;;;;;;;17.88;39.04;98636.47;6968138;28;20344;-79
2023/04/07 13:44:13;;;;;;;5.83;3.80;;;;;;;17.35;39.88;98630.88;6968112;28;20748;-78
2023/04/07 13:47:34;;;;;;;5.07;4.00;;;;;;;18.09;39.33;98630.16;6974722;28;20202;-84
2023/04/07 13:50:56;;;;;;;4.13;3.70;;;;;;;17.43;39.80;98627.75;6996834;28;20218;-82
2023/04/07 13:54:18;;;;;;;6.10;4.87;;;;;;;17.66;42.17;98632.97;6998840;28;20253;-79
2023/04/07 13:57:40;;;;;;;6.90;4.20;;;;;;;18.36;41.19;98632.91;6996072;28;20230;-77
2023/04/07 14:01:02;;;;;;;6.57;4.10;;;;;;;17.56;42.16;98635.53;6994471;28;20351;-77
2023/04/07 14:04:24;;;;;;;6.90;4.50;;;;;;;17.55;42.69;98630.34;6996500;28;20754;-78
2023/04/07 14:07:45;;;;;;;5.93;4.40;;;;;;;17.71;42.58;98621.28;6995211;28;20209;-78
2023/04/07 14:11:07;;;;;;;6.57;4.33;;;;;;;18.13;41.52;98627.75;6994183;28;20744;-77
2023/04/07 14:14:30;;;;;;;6.30;4.23;;;;;;;17.57;42.34;98604.47;6972685;28;20321;-77
2023/04/07 14:17:51;;;;;;;5.33;3.90;;;;;;;17.82;41.74;98623.84;6995298;28;20317;-78
2023/04/07 14:21:13;;;;;;;5.63;3.93;;;;;;;18.39;40.97;98625.03;6999998;28;20266;-77
2023/04/07 14:24:34;;;;;;;7.40;4.07;;;;;;;18.08;41.34;98620.34;6999923;28;20312;-78
2023/04/07 14:27:56;;;;;;;6.27;4.00;;;;;;;17.81;40.74;98618.69;7000157;28;20658;-77
2023/04/07 14:31:19;;;;;;;4.60;3.60;;;;;;;18.18;40.10;98620.44;6998255;28;20213;-79
2023/04/07 14:34:41;;;;;;;6.03;3.93;;;;;;;17.89;40.41;98626.38;6997237;28;20713;-77
2023/04/07 14:38:02;;;;;;;4.57;3.50;;;;;;;18.16;40.00;98629.97;6997322;28;20257;-78
2023/04/07 14:41:24;;;;;;;4.90;4.17;;;;;;;18.01;40.34;98617.00;7005108;28;20213;-77
2023/04/07 14:44:46;;;;;;;5.07;4.23;;;;;;;17.73;40.63;98624.56;7019076;28;20225;-78
2023/04/07 14:48:09;;;;;;;3.87;3.47;;;;;;;18.48;38.92;98620.75;7027467;28;20238;-77
2023/04/07 14:51:30;;;;;;;4.87;3.87;;;;;;;18.49;38.67;98619.66;7027018;28;20240;-77
2023/04/07 14:54:51;;;;;;;4.10;3.67;;;;;;;18.40;38.44;98625.88;7027854;28;20224;-77
2023/04/07 14:58:13;;;;;;;6.33;3.80;;;;;;;17.99;39.53;98621.06;7005984;28;20649;-78
2023/04/07 15:01:34;;;;;;;6.20;4.17;;;;;;;17.98;39.45;98624.88;6998813;28;20201;-77
2023/04/07 15:04:57;;;;;;;4.50;3.50;;;;;;;18.55;38.71;98624.09;6999159;28;20229;-77
2023/04/07 15:08:19;;;;;;;4.63;3.40;;;;;;;17.74;38.55;98629.75;6999400;28;20198;-77
2023/04/07 15:11:40;;;;;;;3.93;3.43;;;;;;;18.13;38.83;98633.19;6998485;28;20292;-78
2023/04/07 15:15:02;;;;;;;5.67;4.50;;;;;;;18.27;38.66;98634.44;6999253;28;20282;-77
2023/04/07 15:18:23;;;;;;;4.90;3.20;;;;;;;18.43;37.65;98634.34;6978939;28;20893;-79
2023/04/07 15:21:46;;;;;;;6.30;4.23;;;;;;;18.45;37.58;98636.84;6977353;28;20296;-77
2023/04/07 15:25:08;;;;;;;5.80;3.20;;;;;;;18.54;37.96;98627.06;7004723;28;20238;-77
2023/04/07 15:28:29;;;;;;;4.70;4.27;;;;;;;18.73;37.76;98641.97;6996639;28;20201;-77
2023/04/07 15:31:51;;;;;;;4.93;3.10;;;;;;;18.15;38.00;98645.50;6995619;28;20266;-77
2023/04/07 15:35:12;;;;;;;3.93;3.53;;;;;;;18.38;38.63;98638.94;6997790;28;20364;-77
2023/04/07 15:38:37;;;;;;;6.77;3.70;;;;;;;17.70;40.11;98633.25;6986218;28;20230;-77
2023/04/07 15:41:59;;;;;;;4.63;3.70;;;;;;;17.90;40.14;98647.13;6969854;28;20206;-77
2023/04/07 15:45:21;;;;;;;4.90;3.60;;;;;;;17.30;41.39;98652.63;6970910;28;20222;-77
2023/04/07 15:48:42;;;;;;;5.73;4.07;;;;;;;17.46;40.97;98657.22;6977728;28;20202;-77
2023/04/07 15:52:04;;;;;;;3.93;3.40;;;;;;;17.72;40.81;98647.47;6997243;28;20210;-77
2023/04/07 15:55:27;;;;;;;5.30;3.60;;;;;;;17.34;41.92;98664.66;6998293;28;20253;-77